sensor_id;sensor_type;location;lat;lon;timestamp;P1;durP1;ratioP1;P2;durP2;ratioP2
17398;SDS011;8817;48.170;8.592;2022-09-09T00:00:45;2.50;;;2.40;;
17398;SDS011;8817;48.170;8.592;2022-09-09T00:03:17;2.30;;;2.30;;
17398;SDS011;8817;48.170;8.592;2022-09-09T00:05:51;2.65;;;2.58;;
17398;SDS011;8817;48.170;8.592;2022-09-09T00:08:26;2.70;;;2.60;;
17398;SDS011;8817;48.170;8.592;2022-09-09T00:11:00;2.50;;;2.40;;
17398;SDS011;8817;48.170;8.592;2022-09-09T00:13:32;2.35;;;2.30;;
17398;SDS011;8817;48.170;8.592;2022-09-09T00:16:04;2.85;;;2.55;;
17398;SDS011;8817;48.170;8.592;2022-09-09T00:18:44;2.33;;;2.33;;
17398;SDS011;8817;48.170;8.592;2022-09-09T00:21:19;2.40;;;2.40;;
17398;SDS011;8817;48.170;8.592;2022-09-09T00:23:50;2.47;;;2.47;;
17398;SDS011;8817;48.170;8.592;2022-09-09T00:26:21;2.67;;;2.58;;
17398;SDS011;8817;48.170;8.592;2022-09-09T00:28:57;3.75;;;2.53;;
17398;SDS011;8817;48.170;8.592;2022-09-09T00:31:31;2.40;;;2.40;;
17398;SDS011;8817;48.170;8.592;2022-09-09T00:34:00;2.67;;;2.58;;
17398;SDS011;8817;48.170;8.592;2022-09-09T00:36:35;2.90;;;2.45;;
17398;SDS011;8817;48.170;8.592;2022-09-09T00:39:04;2.60;;;2.50;;
17398;SDS011;8817;48.170;8.592;2022-09-09T00:41:35;2.88;;;2.55;;
17398;SDS011;8817;48.170;8.592;2022-09-09T00:44:17;2.40;;;2.40;;
17398;SDS011;8817;48.170;8.592;2022-09-09T00:46:56;2.50;;;2.50;;
17398;SDS011;8817;48.170;8.592;2022-09-09T00:49:36;6.03;;;2.63;;
17398;SDS011;8817;48.170;8.592;2022-09-09T00:52:18;2.50;;;2.40;;
17398;SDS011;8817;48.170;8.592;2022-09-09T00:54:56;2.30;;;2.30;;
17398;SDS011;8817;48.170;8.592;2022-09-09T00:57:31;2.40;;;2.40;;
17398;SDS011;8817;48.170;8.592;2022-09-09T01:00:02;2.78;;;2.67;;
17398;SDS011;8817;48.170;8.592;2022-09-09T01:02:58;2.53;;;2.53;;
17398;SDS011;8817;48.170;8.592;2022-09-09T01:05:39;2.40;;;2.40;;
17398;SDS011;8817;48.170;8.592;2022-09-09T01:08:13;2.63;;;2.53;;
17398;SDS011;8817;48.170;8.592;2022-09-09T01:10:55;2.50;;;2.30;;
17398;SDS011;8817;48.170;8.592;2022-09-09T01:13:25;2.50;;;2.30;;
17398;SDS011;8817;48.170;8.592;2022-09-09T01:15:55;2.40;;;2.40;;
17398;SDS011;8817;48.170;8.592;2022-09-09T01:18:26;2.50;;;2.50;;
17398;SDS011;8817;48.170;8.592;2022-09-09T01:21:01;2.50;;;2.50;;
17398;SDS011;8817;48.170;8.592;2022-09-09T01:23:44;2.90;;;2.70;;
17398;SDS011;8817;48.170;8.592;2022-09-09T01:26:27;2.40;;;2.40;;
17398;SDS011;8817;48.170;8.592;2022-09-09T01:28:58;2.60;;;2.50;;
17398;SDS011;8817;48.170;8.592;2022-09-09T01:31:27;4.40;;;2.40;;
17398;SDS011;8817;48.170;8.592;2022-09-09T01:33:57;2.40;;;2.20;;
17398;SDS011;8817;48.170;8.592;2022-09-09T01:36:26;2.60;;;2.30;;
17398;SDS011;8817;48.170;8.592;2022-09-09T01:38:58;2.80;;;2.60;;
17398;SDS011;8817;48.170;8.592;2022-09-09T01:41:25;2.28;;;2.28;;
17398;SDS011;8817;48.170;8.592;2022-09-09T01:43:54;2.58;;;2.47;;
17398;SDS011;8817;48.170;8.592;2022-09-09T01:46:22;2.60;;;2.40;;
17398;SDS011;8817;48.170;8.592;2022-09-09T01:48:50;2.40;;;2.40;;
17398;SDS011;8817;48.170;8.592;2022-09-09T01:51:18;2.40;;;2.30;;
17398;SDS011;8817;48.170;8.592;2022-09-09T01:53:45;2.60;;;2.50;;
17398;SDS011;8817;48.170;8.592;2022-09-09T01:56:19;2.63;;;2.47;;
17398;SDS011;8817;48.170;8.592;2022-09-09T01:59:00;2.78;;;2.50;;
17398;SDS011;8817;48.170;8.592;2022-09-09T02:01:41;2.40;;;2.30;;
17398;SDS011;8817;48.170;8.592;2022-09-09T02:04:22;2.35;;;2.35;;
17398;SDS011;8817;48.170;8.592;2022-09-09T02:07:02;2.40;;;2.30;;
17398;SDS011;8817;48.170;8.592;2022-09-09T02:09:32;2.70;;;2.60;;
17398;SDS011;8817;48.170;8.592;2022-09-09T02:12:00;2.55;;;2.50;;
17398;SDS011;8817;48.170;8.592;2022-09-09T02:14:35;3.35;;;3.00;;
17398;SDS011;8817;48.170;8.592;2022-09-09T02:17:08;2.58;;;2.58;;
17398;SDS011;8817;48.170;8.592;2022-09-09T02:19:37;2.70;;;2.70;;
17398;SDS011;8817;48.170;8.592;2022-09-09T02:22:08;2.60;;;2.50;;
17398;SDS011;8817;48.170;8.592;2022-09-09T02:24:36;2.70;;;2.60;;
17398;SDS011;8817;48.170;8.592;2022-09-09T02:27:05;2.58;;;2.50;;
17398;SDS011;8817;48.170;8.592;2022-09-09T02:29:38;2.50;;;2.50;;
17398;SDS011;8817;48.170;8.592;2022-09-09T02:32:08;2.55;;;2.50;;
17398;SDS011;8817;48.170;8.592;2022-09-09T02:34:40;2.80;;;2.53;;
17398;SDS011;8817;48.170;8.592;2022-09-09T02:37:11;3.10;;;2.90;;
17398;SDS011;8817;48.170;8.592;2022-09-09T02:39:41;2.80;;;2.60;;
17398;SDS011;8817;48.170;8.592;2022-09-09T02:42:08;2.50;;;2.50;;
17398;SDS011;8817;48.170;8.592;2022-09-09T02:44:36;2.50;;;2.40;;
17398;SDS011;8817;48.170;8.592;2022-09-09T02:47:09;2.95;;;2.80;;
17398;SDS011;8817;48.170;8.592;2022-09-09T02:49:44;2.80;;;2.60;;
17398;SDS011;8817;48.170;8.592;2022-09-09T02:52:26;2.75;;;2.55;;
17398;SDS011;8817;48.170;8.592;2022-09-09T02:55:06;2.60;;;2.50;;
17398;SDS011;8817;48.170;8.592;2022-09-09T02:57:38;2.50;;;2.50;;
17398;SDS011;8817;48.170;8.592;2022-09-09T03:00:08;2.78;;;2.72;;
17398;SDS011;8817;48.170;8.592;2022-09-09T03:02:36;2.67;;;2.65;;
17398;SDS011;8817;48.170;8.592;2022-09-09T03:05:04;2.80;;;2.70;;
17398;SDS011;8817;48.170;8.592;2022-09-09T03:07:31;2.60;;;2.60;;
17398;SDS011;8817;48.170;8.592;2022-09-09T03:09:58;2.70;;;2.50;;
17398;SDS011;8817;48.170;8.592;2022-09-09T03:12:25;2.55;;;2.55;;
17398;SDS011;8817;48.170;8.592;2022-09-09T03:14:52;2.72;;;2.63;;
17398;SDS011;8817;48.170;8.592;2022-09-09T03:17:20;2.72;;;2.63;;
17398;SDS011;8817;48.170;8.592;2022-09-09T03:19:48;2.90;;;2.70;;
17398;SDS011;8817;48.170;8.592;2022-09-09T03:22:17;2.90;;;2.75;;
17398;SDS011;8817;48.170;8.592;2022-09-09T03:24:44;3.15;;;3.00;;
17398;SDS011;8817;48.170;8.592;2022-09-09T03:27:11;3.13;;;2.92;;
17398;SDS011;8817;48.170;8.592;2022-09-09T03:29:39;3.25;;;3.10;;
17398;SDS011;8817;48.170;8.592;2022-09-09T03:32:06;3.05;;;2.95;;
17398;SDS011;8817;48.170;8.592;2022-09-09T03:34:36;2.80;;;2.80;;
17398;SDS011;8817;48.170;8.592;2022-09-09T03:37:05;3.08;;;2.88;;
17398;SDS011;8817;48.170;8.592;2022-09-09T03:39:32;2.90;;;2.80;;
17398;SDS011;8817;48.170;8.592;2022-09-09T03:41:59;2.80;;;2.70;;
17398;SDS011;8817;48.170;8.592;2022-09-09T03:44:29;2.72;;;2.72;;
17398;SDS011;8817;48.170;8.592;2022-09-09T03:46:55;2.90;;;2.80;;
17398;SDS011;8817;48.170;8.592;2022-09-09T03:49:25;2.97;;;2.80;;
17398;SDS011;8817;48.170;8.592;2022-09-09T03:51:55;4.40;;;3.05;;
17398;SDS011;8817;48.170;8.592;2022-09-09T03:54:23;3.00;;;2.80;;
17398;SDS011;8817;48.170;8.592;2022-09-09T03:56:50;2.97;;;2.90;;
17398;SDS011;8817;48.170;8.592;2022-09-09T03:59:17;3.00;;;2.80;;
17398;SDS011;8817;48.170;8.592;2022-09-09T04:01:45;3.10;;;3.00;;
17398;SDS011;8817;48.170;8.592;2022-09-09T04:04:12;3.20;;;3.10;;
17398;SDS011;8817;48.170;8.592;2022-09-09T04:06:39;3.20;;;3.00;;
17398;SDS011;8817;48.170;8.592;2022-09-09T04:09:07;3.35;;;2.92;;
17398;SDS011;8817;48.170;8.592;2022-09-09T04:11:34;3.20;;;3.10;;
17398;SDS011;8817;48.170;8.592;2022-09-09T04:14:02;2.88;;;2.80;;
17398;SDS011;8817;48.170;8.592;2022-09-09T04:16:31;3.40;;;3.20;;
17398;SDS011;8817;48.170;8.592;2022-09-09T04:18:58;3.58;;;3.38;;
17398;SDS011;8817;48.170;8.592;2022-09-09T04:21:26;3.10;;;3.00;;
17398;SDS011;8817;48.170;8.592;2022-09-09T04:23:53;3.10;;;3.10;;
17398;SDS011;8817;48.170;8.592;2022-09-09T04:26:21;3.30;;;3.20;;
17398;SDS011;8817;48.170;8.592;2022-09-09T04:28:48;3.05;;;2.97;;
17398;SDS011;8817;48.170;8.592;2022-09-09T04:31:16;3.00;;;2.90;;
17398;SDS011;8817;48.170;8.592;2022-09-09T04:33:45;3.10;;;3.00;;
17398;SDS011;8817;48.170;8.592;2022-09-09T04:36:12;2.90;;;2.90;;
17398;SDS011;8817;48.170;8.592;2022-09-09T04:38:39;3.30;;;3.00;;
17398;SDS011;8817;48.170;8.592;2022-09-09T04:41:06;3.80;;;3.20;;
17398;SDS011;8817;48.170;8.592;2022-09-09T04:43:37;3.05;;;3.00;;
17398;SDS011;8817;48.170;8.592;2022-09-09T04:46:04;3.55;;;3.28;;
17398;SDS011;8817;48.170;8.592;2022-09-09T04:48:31;3.50;;;3.30;;
17398;SDS011;8817;48.170;8.592;2022-09-09T04:50:59;3.10;;;3.10;;
17398;SDS011;8817;48.170;8.592;2022-09-09T04:53:28;2.88;;;2.85;;
17398;SDS011;8817;48.170;8.592;2022-09-09T04:56:01;3.50;;;3.40;;
17398;SDS011;8817;48.170;8.592;2022-09-09T04:58:29;3.40;;;3.27;;
17398;SDS011;8817;48.170;8.592;2022-09-09T05:01:03;3.30;;;3.20;;
17398;SDS011;8817;48.170;8.592;2022-09-09T05:03:31;3.40;;;3.30;;
17398;SDS011;8817;48.170;8.592;2022-09-09T05:06:02;3.58;;;3.47;;
17398;SDS011;8817;48.170;8.592;2022-09-09T05:08:33;3.50;;;3.40;;
17398;SDS011;8817;48.170;8.592;2022-09-09T05:11:00;3.30;;;3.20;;
17398;SDS011;8817;48.170;8.592;2022-09-09T05:13:27;3.30;;;3.20;;
17398;SDS011;8817;48.170;8.592;2022-09-09T05:15:56;3.40;;;3.20;;
17398;SDS011;8817;48.170;8.592;2022-09-09T05:18:25;3.28;;;3.17;;
17398;SDS011;8817;48.170;8.592;2022-09-09T05:20:52;3.30;;;3.20;;
17398;SDS011;8817;48.170;8.592;2022-09-09T05:23:19;3.45;;;3.35;;
17398;SDS011;8817;48.170;8.592;2022-09-09T05:25:54;3.60;;;3.50;;
17398;SDS011;8817;48.170;8.592;2022-09-09T05:28:22;3.88;;;3.58;;
17398;SDS011;8817;48.170;8.592;2022-09-09T05:30:54;3.60;;;3.50;;
17398;SDS011;8817;48.170;8.592;2022-09-09T05:33:27;3.85;;;3.75;;
17398;SDS011;8817;48.170;8.592;2022-09-09T05:35:57;4.00;;;3.70;;
17398;SDS011;8817;48.170;8.592;2022-09-09T05:38:24;3.83;;;3.72;;
17398;SDS011;8817;48.170;8.592;2022-09-09T05:40:51;3.63;;;3.53;;
17398;SDS011;8817;48.170;8.592;2022-09-09T05:43:18;3.40;;;3.30;;
17398;SDS011;8817;48.170;8.592;2022-09-09T05:45:46;3.92;;;3.30;;
17398;SDS011;8817;48.170;8.592;2022-09-09T05:48:13;3.40;;;3.30;;
17398;SDS011;8817;48.170;8.592;2022-09-09T05:50:42;4.03;;;3.47;;
17398;SDS011;8817;48.170;8.592;2022-09-09T05:53:10;3.40;;;3.30;;
17398;SDS011;8817;48.170;8.592;2022-09-09T05:55:37;3.95;;;3.65;;
17398;SDS011;8817;48.170;8.592;2022-09-09T05:58:04;3.30;;;3.20;;
17398;SDS011;8817;48.170;8.592;2022-09-09T06:00:31;3.53;;;3.30;;
17398;SDS011;8817;48.170;8.592;2022-09-09T06:02:57;3.63;;;3.42;;
17398;SDS011;8817;48.170;8.592;2022-09-09T06:05:28;3.25;;;3.25;;
17398;SDS011;8817;48.170;8.592;2022-09-09T06:07:56;3.40;;;3.20;;
17398;SDS011;8817;48.170;8.592;2022-09-09T06:10:23;3.45;;;3.25;;
17398;SDS011;8817;48.170;8.592;2022-09-09T06:12:52;3.42;;;3.22;;
17398;SDS011;8817;48.170;8.592;2022-09-09T06:15:19;3.72;;;3.53;;
17398;SDS011;8817;48.170;8.592;2022-09-09T06:17:46;4.68;;;3.40;;
17398;SDS011;8817;48.170;8.592;2022-09-09T06:20:14;3.30;;;3.20;;
17398;SDS011;8817;48.170;8.592;2022-09-09T06:22:41;3.50;;;3.30;;
17398;SDS011;8817;48.170;8.592;2022-09-09T06:25:13;3.28;;;3.08;;
17398;SDS011;8817;48.170;8.592;2022-09-09T06:27:40;3.45;;;3.30;;
17398;SDS011;8817;48.170;8.592;2022-09-09T06:30:08;3.40;;;3.30;;
17398;SDS011;8817;48.170;8.592;2022-09-09T06:32:36;3.20;;;3.10;;
17398;SDS011;8817;48.170;8.592;2022-09-09T06:35:04;2.90;;;2.90;;
17398;SDS011;8817;48.170;8.592;2022-09-09T06:37:32;5.10;;;3.10;;
17398;SDS011;8817;48.170;8.592;2022-09-09T06:39:59;3.10;;;3.00;;
17398;SDS011;8817;48.170;8.592;2022-09-09T06:42:28;3.47;;;3.38;;
17398;SDS011;8817;48.170;8.592;2022-09-09T06:44:55;3.10;;;3.10;;
17398;SDS011;8817;48.170;8.592;2022-09-09T06:47:21;3.20;;;3.10;;
17398;SDS011;8817;48.170;8.592;2022-09-09T06:49:49;3.58;;;3.35;;
17398;SDS011;8817;48.170;8.592;2022-09-09T06:52:16;3.47;;;3.28;;
17398;SDS011;8817;48.170;8.592;2022-09-09T06:54:43;3.60;;;3.50;;
17398;SDS011;8817;48.170;8.592;2022-09-09T06:57:10;3.33;;;3.22;;
17398;SDS011;8817;48.170;8.592;2022-09-09T06:59:38;3.58;;;3.38;;
17398;SDS011;8817;48.170;8.592;2022-09-09T07:02:06;3.30;;;3.10;;
17398;SDS011;8817;48.170;8.592;2022-09-09T07:04:34;3.20;;;3.10;;
17398;SDS011;8817;48.170;8.592;2022-09-09T07:07:02;3.53;;;3.40;;
17398;SDS011;8817;48.170;8.592;2022-09-09T07:09:29;3.85;;;3.35;;
17398;SDS011;8817;48.170;8.592;2022-09-09T07:11:56;3.53;;;3.33;;
17398;SDS011;8817;48.170;8.592;2022-09-09T07:14:24;3.63;;;3.42;;
17398;SDS011;8817;48.170;8.592;2022-09-09T07:16:53;6.43;;;3.50;;
17398;SDS011;8817;48.170;8.592;2022-09-09T07:19:20;3.53;;;3.35;;
17398;SDS011;8817;48.170;8.592;2022-09-09T07:21:47;3.25;;;3.15;;
17398;SDS011;8817;48.170;8.592;2022-09-09T07:24:14;3.60;;;3.40;;
17398;SDS011;8817;48.170;8.592;2022-09-09T07:26:41;3.55;;;3.45;;
17398;SDS011;8817;48.170;8.592;2022-09-09T07:29:09;4.15;;;3.20;;
17398;SDS011;8817;48.170;8.592;2022-09-09T07:31:38;3.78;;;3.33;;
17398;SDS011;8817;48.170;8.592;2022-09-09T07:34:07;3.70;;;3.60;;
17398;SDS011;8817;48.170;8.592;2022-09-09T07:36:35;3.70;;;3.50;;
17398;SDS011;8817;48.170;8.592;2022-09-09T07:39:04;6.10;;;3.58;;
17398;SDS011;8817;48.170;8.592;2022-09-09T07:41:33;3.80;;;3.40;;
17398;SDS011;8817;48.170;8.592;2022-09-09T07:44:04;3.45;;;3.35;;
17398;SDS011;8817;48.170;8.592;2022-09-09T07:46:32;3.60;;;3.50;;
17398;SDS011;8817;48.170;8.592;2022-09-09T07:49:00;4.00;;;3.80;;
17398;SDS011;8817;48.170;8.592;2022-09-09T07:51:30;3.83;;;3.53;;
17398;SDS011;8817;48.170;8.592;2022-09-09T07:53:59;3.55;;;3.35;;
17398;SDS011;8817;48.170;8.592;2022-09-09T07:56:28;3.70;;;3.50;;
17398;SDS011;8817;48.170;8.592;2022-09-09T07:58:56;3.45;;;3.30;;
17398;SDS011;8817;48.170;8.592;2022-09-09T08:01:25;3.50;;;3.40;;
17398;SDS011;8817;48.170;8.592;2022-09-09T08:03:54;3.97;;;3.35;;
17398;SDS011;8817;48.170;8.592;2022-09-09T08:06:24;3.60;;;3.40;;
17398;SDS011;8817;48.170;8.592;2022-09-09T08:08:53;3.58;;;3.47;;
17398;SDS011;8817;48.170;8.592;2022-09-09T08:11:21;3.53;;;3.42;;
17398;SDS011;8817;48.170;8.592;2022-09-09T08:13:49;3.40;;;3.30;;
17398;SDS011;8817;48.170;8.592;2022-09-09T08:16:18;3.80;;;3.50;;
17398;SDS011;8817;48.170;8.592;2022-09-09T08:18:46;3.42;;;3.33;;
17398;SDS011;8817;48.170;8.592;2022-09-09T08:21:15;4.57;;;3.35;;
17398;SDS011;8817;48.170;8.592;2022-09-09T08:23:44;3.58;;;3.17;;
17398;SDS011;8817;48.170;8.592;2022-09-09T08:26:14;3.40;;;3.30;;
17398;SDS011;8817;48.170;8.592;2022-09-09T08:28:44;3.53;;;3.22;;
17398;SDS011;8817;48.170;8.592;2022-09-09T08:31:12;3.40;;;3.10;;
17398;SDS011;8817;48.170;8.592;2022-09-09T08:33:40;3.50;;;3.30;;
17398;SDS011;8817;48.170;8.592;2022-09-09T08:36:09;3.30;;;3.20;;
17398;SDS011;8817;48.170;8.592;2022-09-09T08:38:38;3.50;;;3.30;;
17398;SDS011;8817;48.170;8.592;2022-09-09T08:41:09;4.28;;;3.30;;
17398;SDS011;8817;48.170;8.592;2022-09-09T08:44:05;3.22;;;3.10;;
17398;SDS011;8817;48.170;8.592;2022-09-09T08:46:39;3.33;;;3.22;;
17398;SDS011;8817;48.170;8.592;2022-09-09T08:49:16;4.22;;;3.38;;
17398;SDS011;8817;48.170;8.592;2022-09-09T08:51:53;3.30;;;3.20;;
17398;SDS011;8817;48.170;8.592;2022-09-09T08:54:22;3.83;;;3.13;;
17398;SDS011;8817;48.170;8.592;2022-09-09T08:56:50;3.22;;;3.13;;
17398;SDS011;8817;48.170;8.592;2022-09-09T08:59:19;3.60;;;3.30;;
17398;SDS011;8817;48.170;8.592;2022-09-09T09:01:55;3.42;;;3.22;;
17398;SDS011;8817;48.170;8.592;2022-09-09T09:04:33;3.22;;;3.13;;
17398;SDS011;8817;48.170;8.592;2022-09-09T09:07:14;3.00;;;2.90;;
17398;SDS011;8817;48.170;8.592;2022-09-09T09:09:50;2.97;;;2.92;;
17398;SDS011;8817;48.170;8.592;2022-09-09T09:12:25;2.75;;;2.70;;
17398;SDS011;8817;48.170;8.592;2022-09-09T09:14:57;3.05;;;2.90;;
17398;SDS011;8817;48.170;8.592;2022-09-09T09:17:26;2.83;;;2.83;;
17398;SDS011;8817;48.170;8.592;2022-09-09T09:19:56;3.13;;;2.88;;
17398;SDS011;8817;48.170;8.592;2022-09-09T09:22:26;3.25;;;3.00;;
17398;SDS011;8817;48.170;8.592;2022-09-09T09:25:00;3.22;;;2.97;;
17398;SDS011;8817;48.170;8.592;2022-09-09T09:27:33;5.85;;;2.92;;
17398;SDS011;8817;48.170;8.592;2022-09-09T09:30:06;3.00;;;3.00;;
17398;SDS011;8817;48.170;8.592;2022-09-09T09:32:42;3.20;;;3.10;;
17398;SDS011;8817;48.170;8.592;2022-09-09T09:35:15;3.15;;;3.05;;
17398;SDS011;8817;48.170;8.592;2022-09-09T09:37:42;2.90;;;2.80;;
17398;SDS011;8817;48.170;8.592;2022-09-09T09:40:10;3.30;;;3.10;;
17398;SDS011;8817;48.170;8.592;2022-09-09T09:42:47;3.20;;;3.10;;
17398;SDS011;8817;48.170;8.592;2022-09-09T09:45:20;5.13;;;3.20;;
17398;SDS011;8817;48.170;8.592;2022-09-09T09:47:57;2.95;;;2.95;;
17398;SDS011;8817;48.170;8.592;2022-09-09T09:50:27;3.10;;;2.90;;
17398;SDS011;8817;48.170;8.592;2022-09-09T09:52:55;3.10;;;3.00;;
17398;SDS011;8817;48.170;8.592;2022-09-09T09:55:23;3.22;;;3.03;;
17398;SDS011;8817;48.170;8.592;2022-09-09T09:57:52;4.45;;;2.97;;
17398;SDS011;8817;48.170;8.592;2022-09-09T10:00:21;3.95;;;3.00;;
17398;SDS011;8817;48.170;8.592;2022-09-09T10:02:49;3.30;;;3.00;;
17398;SDS011;8817;48.170;8.592;2022-09-09T10:05:19;3.08;;;2.97;;
17398;SDS011;8817;48.170;8.592;2022-09-09T10:07:47;3.10;;;3.00;;
17398;SDS011;8817;48.170;8.592;2022-09-09T10:10:30;3.00;;;2.90;;
17398;SDS011;8817;48.170;8.592;2022-09-09T10:13:08;3.03;;;2.83;;
17398;SDS011;8817;48.170;8.592;2022-09-09T10:15:44;4.35;;;3.00;;
17398;SDS011;8817;48.170;8.592;2022-09-09T10:18:33;3.15;;;2.97;;
17398;SDS011;8817;48.170;8.592;2022-09-09T10:21:15;3.05;;;2.92;;
17398;SDS011;8817;48.170;8.592;2022-09-09T10:24:02;3.22;;;3.13;;
17398;SDS011;8817;48.170;8.592;2022-09-09T10:26:46;2.97;;;2.90;;
17398;SDS011;8817;48.170;8.592;2022-09-09T10:29:24;3.03;;;2.85;;
17398;SDS011;8817;48.170;8.592;2022-09-09T10:32:09;3.08;;;2.97;;
17398;SDS011;8817;48.170;8.592;2022-09-09T10:34:55;3.10;;;3.00;;
17398;SDS011;8817;48.170;8.592;2022-09-09T10:37:31;2.95;;;2.92;;
17398;SDS011;8817;48.170;8.592;2022-09-09T10:40:13;3.20;;;3.00;;
17398;SDS011;8817;48.170;8.592;2022-09-09T10:42:52;3.15;;;3.05;;
17398;SDS011;8817;48.170;8.592;2022-09-09T10:45:26;3.40;;;2.95;;
17398;SDS011;8817;48.170;8.592;2022-09-09T10:48:13;3.30;;;3.20;;
17398;SDS011;8817;48.170;8.592;2022-09-09T10:50:54;3.00;;;2.90;;
17398;SDS011;8817;48.170;8.592;2022-09-09T10:53:33;3.00;;;2.90;;
17398;SDS011;8817;48.170;8.592;2022-09-09T10:56:06;2.80;;;2.80;;
17398;SDS011;8817;48.170;8.592;2022-09-09T10:58:38;2.85;;;2.83;;
17398;SDS011;8817;48.170;8.592;2022-09-09T11:01:13;2.80;;;2.70;;
17398;SDS011;8817;48.170;8.592;2022-09-09T11:03:46;3.00;;;2.90;;
17398;SDS011;8817;48.170;8.592;2022-09-09T11:06:21;3.22;;;3.00;;
17398;SDS011;8817;48.170;8.592;2022-09-09T11:08:53;3.00;;;2.90;;
17398;SDS011;8817;48.170;8.592;2022-09-09T11:11:21;2.90;;;2.90;;
17398;SDS011;8817;48.170;8.592;2022-09-09T11:13:54;3.10;;;3.00;;
17398;SDS011;8817;48.170;8.592;2022-09-09T11:16:27;2.70;;;2.70;;
17398;SDS011;8817;48.170;8.592;2022-09-09T11:18:59;2.90;;;2.70;;
17398;SDS011;8817;48.170;8.592;2022-09-09T11:21:31;2.83;;;2.80;;
17398;SDS011;8817;48.170;8.592;2022-09-09T11:24:03;3.30;;;3.10;;
17398;SDS011;8817;48.170;8.592;2022-09-09T11:26:36;2.85;;;2.75;;
17398;SDS011;8817;48.170;8.592;2022-09-09T11:29:13;2.70;;;2.70;;
17398;SDS011;8817;48.170;8.592;2022-09-09T11:31:59;2.80;;;2.70;;
17398;SDS011;8817;48.170;8.592;2022-09-09T11:34:42;2.80;;;2.80;;
17398;SDS011;8817;48.170;8.592;2022-09-09T11:37:22;2.60;;;2.50;;
17398;SDS011;8817;48.170;8.592;2022-09-09T11:43:00;2.70;;;2.70;;
17398;SDS011;8817;48.170;8.592;2022-09-09T11:45:28;2.70;;;2.60;;
17398;SDS011;8817;48.170;8.592;2022-09-09T11:47:56;3.05;;;2.60;;
17398;SDS011;8817;48.170;8.592;2022-09-09T11:50:32;3.53;;;2.90;;
17398;SDS011;8817;48.170;8.592;2022-09-09T11:53:20;2.70;;;2.70;;
17398;SDS011;8817;48.170;8.592;2022-09-09T11:55:59;2.80;;;2.70;;
17398;SDS011;8817;48.170;8.592;2022-09-09T11:58:28;3.05;;;2.92;;
17398;SDS011;8817;48.170;8.592;2022-09-09T12:01:01;3.40;;;3.20;;
17398;SDS011;8817;48.170;8.592;2022-09-09T12:03:41;2.85;;;2.85;;
17398;SDS011;8817;48.170;8.592;2022-09-09T12:06:13;4.43;;;3.03;;
17398;SDS011;8817;48.170;8.592;2022-09-09T12:08:45;3.13;;;3.03;;
17398;SDS011;8817;48.170;8.592;2022-09-09T12:11:23;3.15;;;3.00;;
17398;SDS011;8817;48.170;8.592;2022-09-09T12:13:54;3.10;;;2.90;;
17398;SDS011;8817;48.170;8.592;2022-09-09T12:16:29;2.95;;;2.92;;
17398;SDS011;8817;48.170;8.592;2022-09-09T12:19:03;5.57;;;3.00;;
17398;SDS011;8817;48.170;8.592;2022-09-09T12:21:35;3.10;;;3.00;;
17398;SDS011;8817;48.170;8.592;2022-09-09T12:24:09;3.42;;;3.15;;
17398;SDS011;8817;48.170;8.592;2022-09-09T12:26:37;3.22;;;2.90;;
17398;SDS011;8817;48.170;8.592;2022-09-09T12:29:13;3.00;;;2.90;;
17398;SDS011;8817;48.170;8.592;2022-09-09T12:31:51;4.53;;;3.20;;
17398;SDS011;8817;48.170;8.592;2022-09-09T12:34:35;3.15;;;3.15;;
17398;SDS011;8817;48.170;8.592;2022-09-09T12:39:53;3.80;;;3.50;;
17398;SDS011;8817;48.170;8.592;2022-09-09T12:42:23;3.20;;;3.10;;
17398;SDS011;8817;48.170;8.592;2022-09-09T12:44:51;3.40;;;3.10;;
17398;SDS011;8817;48.170;8.592;2022-09-09T12:47:19;3.20;;;2.97;;
17398;SDS011;8817;48.170;8.592;2022-09-09T12:49:50;3.00;;;2.90;;
17398;SDS011;8817;48.170;8.592;2022-09-09T12:52:20;3.08;;;3.08;;
17398;SDS011;8817;48.170;8.592;2022-09-09T12:54:55;3.30;;;3.10;;
17398;SDS011;8817;48.170;8.592;2022-09-09T12:57:23;2.92;;;2.80;;
17398;SDS011;8817;48.170;8.592;2022-09-09T12:59:51;3.03;;;2.92;;
17398;SDS011;8817;48.170;8.592;2022-09-09T13:02:19;2.75;;;2.75;;
17398;SDS011;8817;48.170;8.592;2022-09-09T13:04:48;3.40;;;3.30;;
17398;SDS011;8817;48.170;8.592;2022-09-09T13:07:16;3.40;;;3.30;;
17398;SDS011;8817;48.170;8.592;2022-09-09T13:09:46;2.97;;;2.88;;
17398;SDS011;8817;48.170;8.592;2022-09-09T13:12:15;2.92;;;2.92;;
17398;SDS011;8817;48.170;8.592;2022-09-09T13:14:44;3.17;;;2.97;;
17398;SDS011;8817;48.170;8.592;2022-09-09T13:17:19;3.10;;;3.00;;
17398;SDS011;8817;48.170;8.592;2022-09-09T13:19:48;3.20;;;3.10;;
17398;SDS011;8817;48.170;8.592;2022-09-09T13:22:20;4.07;;;3.08;;
17398;SDS011;8817;48.170;8.592;2022-09-09T13:24:59;5.95;;;3.13;;
17398;SDS011;8817;48.170;8.592;2022-09-09T13:27:29;3.25;;;3.05;;
17398;SDS011;8817;48.170;8.592;2022-09-09T13:29:58;3.00;;;2.90;;
17398;SDS011;8817;48.170;8.592;2022-09-09T13:32:27;5.28;;;3.30;;
17398;SDS011;8817;48.170;8.592;2022-09-09T13:34:57;2.95;;;2.95;;
17398;SDS011;8817;48.170;8.592;2022-09-09T13:37:27;3.25;;;3.10;;
17398;SDS011;8817;48.170;8.592;2022-09-09T13:40:00;2.80;;;2.80;;
17398;SDS011;8817;48.170;8.592;2022-09-09T13:42:28;2.95;;;2.85;;
17398;SDS011;8817;48.170;8.592;2022-09-09T13:44:58;2.92;;;2.83;;
17398;SDS011;8817;48.170;8.592;2022-09-09T13:47:30;3.20;;;3.00;;
17398;SDS011;8817;48.170;8.592;2022-09-09T13:50:09;3.10;;;3.00;;
17398;SDS011;8817;48.170;8.592;2022-09-09T13:52:44;2.80;;;2.70;;
17398;SDS011;8817;48.170;8.592;2022-09-09T13:55:13;2.92;;;2.70;;
17398;SDS011;8817;48.170;8.592;2022-09-09T13:57:49;2.90;;;2.70;;
17398;SDS011;8817;48.170;8.592;2022-09-09T14:00:18;2.50;;;2.40;;
17398;SDS011;8817;48.170;8.592;2022-09-09T14:02:45;2.92;;;2.83;;
17398;SDS011;8817;48.170;8.592;2022-09-09T14:05:12;3.03;;;2.70;;
17398;SDS011;8817;48.170;8.592;2022-09-09T14:07:40;2.40;;;2.40;;
17398;SDS011;8817;48.170;8.592;2022-09-09T14:10:07;2.70;;;2.58;;
17398;SDS011;8817;48.170;8.592;2022-09-09T14:12:37;3.03;;;2.83;;
17398;SDS011;8817;48.170;8.592;2022-09-09T14:15:04;2.75;;;2.75;;
17398;SDS011;8817;48.170;8.592;2022-09-09T14:17:33;4.00;;;2.70;;
17398;SDS011;8817;48.170;8.592;2022-09-09T14:20:00;2.90;;;2.70;;
17398;SDS011;8817;48.170;8.592;2022-09-09T14:22:27;3.22;;;3.03;;
17398;SDS011;8817;48.170;8.592;2022-09-09T14:24:54;2.47;;;2.47;;
17398;SDS011;8817;48.170;8.592;2022-09-09T14:27:22;2.60;;;2.50;;
17398;SDS011;8817;48.170;8.592;2022-09-09T14:29:52;3.30;;;2.25;;
17398;SDS011;8817;48.170;8.592;2022-09-09T14:32:19;2.30;;;2.30;;
17398;SDS011;8817;48.170;8.592;2022-09-09T14:34:47;2.45;;;2.30;;
17398;SDS011;8817;48.170;8.592;2022-09-09T14:37:15;2.40;;;2.40;;
17398;SDS011;8817;48.170;8.592;2022-09-09T14:39:42;2.30;;;2.30;;
17398;SDS011;8817;48.170;8.592;2022-09-09T14:42:12;3.20;;;2.90;;
17398;SDS011;8817;48.170;8.592;2022-09-09T14:44:39;3.03;;;2.92;;
17398;SDS011;8817;48.170;8.592;2022-09-09T14:47:08;2.50;;;2.50;;
17398;SDS011;8817;48.170;8.592;2022-09-09T14:49:35;5.00;;;3.60;;
17398;SDS011;8817;48.170;8.592;2022-09-09T14:52:02;2.78;;;2.67;;
17398;SDS011;8817;48.170;8.592;2022-09-09T14:54:30;2.53;;;2.42;;
17398;SDS011;8817;48.170;8.592;2022-09-09T14:56:57;2.75;;;2.65;;
17398;SDS011;8817;48.170;8.592;2022-09-09T14:59:24;2.53;;;2.53;;
17398;SDS011;8817;48.170;8.592;2022-09-09T15:01:51;2.40;;;2.40;;
17398;SDS011;8817;48.170;8.592;2022-09-09T15:04:20;2.50;;;2.50;;
17398;SDS011;8817;48.170;8.592;2022-09-09T15:06:47;3.95;;;2.60;;
17398;SDS011;8817;48.170;8.592;2022-09-09T15:09:15;3.00;;;2.90;;
17398;SDS011;8817;48.170;8.592;2022-09-09T15:11:42;2.90;;;2.80;;
17398;SDS011;8817;48.170;8.592;2022-09-09T15:14:09;2.60;;;2.60;;
17398;SDS011;8817;48.170;8.592;2022-09-09T15:16:37;2.97;;;2.80;;
17398;SDS011;8817;48.170;8.592;2022-09-09T15:19:05;2.60;;;2.60;;
17398;SDS011;8817;48.170;8.592;2022-09-09T15:21:34;2.80;;;2.70;;
17398;SDS011;8817;48.170;8.592;2022-09-09T15:24:02;2.90;;;2.75;;
17398;SDS011;8817;48.170;8.592;2022-09-09T15:26:30;2.60;;;2.60;;
17398;SDS011;8817;48.170;8.592;2022-09-09T15:28:57;2.80;;;2.70;;